SBPG/PNG METAR and TAF weather

Enter ICAO airport designator
Station Type Date Time Source
SBPG METAR 2021/01/13 20:00 UTC NOAA

SBPG 132000Z 14012KT 9999 SCT030 26/21 Q1015


Station Type Date Time Source
SBPG Decoded METAR 2021/01/13 20:00 UTC NOAA

Paranagua, Brazil (SBPG) 25-31S 048-31W
Jan 13, 2021 - 03:00 PM EST / 2021.01.13 2000 UTC
Wind: from the SE (140 degrees) at 14 MPH (12 KT):0
Visibility: greater than 7 mile(s):0
Sky conditions: partly cloudy
Temperature: 78 F (26 C)
Dew Point: 69 F (21 C)
Relative Humidity: 73%
Pressure (altimeter): 29.97 in. Hg (1015 hPa)
ob: SBPG 132000Z 14012KT 9999 SCT030 26/21 Q1015
cycle: 20

Station Type Date Time Source
SBPG TAF UTC NOAA

Error!

Example: see airport list